sensor_id;sensor_type;location;lat;lon;timestamp;pressure;altitude;pressure_sealevel;temperature;humidity
11808;BME280;5961;42.640;23.380;2022-09-13T00:00:31;93909.63;;;16.16;81.50
11808;BME280;5961;42.640;23.380;2022-09-13T00:03:00;93896.63;;;16.18;81.44
11808;BME280;5961;42.640;23.380;2022-09-13T00:05:27;93898.22;;;16.26;81.26
11808;BME280;5961;42.640;23.380;2022-09-13T00:07:55;93895.16;;;16.27;81.17
11808;BME280;5961;42.640;23.380;2022-09-13T00:10:23;93895.19;;;16.31;81.15
11808;BME280;5961;42.640;23.380;2022-09-13T00:12:51;93901.31;;;16.28;81.40
11808;BME280;5961;42.640;23.380;2022-09-13T00:15:18;93894.84;;;16.36;81.15
11808;BME280;5961;42.640;23.380;2022-09-13T00:17:45;93893.31;;;16.35;81.22
11808;BME280;5961;42.640;23.380;2022-09-13T00:20:13;93888.72;;;16.35;81.21
11808;BME280;5961;42.640;23.380;2022-09-13T00:22:39;93876.44;;;16.31;81.40
11808;BME280;5961;42.640;23.380;2022-09-13T00:25:07;93875.66;;;16.30;81.84
11808;BME280;5961;42.640;23.380;2022-09-13T00:27:34;93881.38;;;16.29;81.82
11808;BME280;5961;42.640;23.380;2022-09-13T00:30:01;93872.97;;;16.30;81.72
11808;BME280;5961;42.640;23.380;2022-09-13T00:32:28;93869.44;;;16.23;82.41
11808;BME280;5961;42.640;23.380;2022-09-13T00:34:55;93869.44;;;16.23;82.50
11808;BME280;5961;42.640;23.380;2022-09-13T00:37:24;93869.91;;;16.28;82.45
11808;BME280;5961;42.640;23.380;2022-09-13T00:39:50;93869.13;;;16.28;82.50
11808;BME280;5961;42.640;23.380;2022-09-13T00:42:17;93857.53;;;16.17;82.93
11808;BME280;5961;42.640;23.380;2022-09-13T00:44:54;93865.28;;;16.25;82.71
11808;BME280;5961;42.640;23.380;2022-09-13T00:47:25;93858.34;;;16.21;82.56
11808;BME280;5961;42.640;23.380;2022-09-13T00:49:56;93874.50;;;16.28;82.78
11808;BME280;5961;42.640;23.380;2022-09-13T00:52:28;93872.94;;;16.27;82.61
11808;BME280;5961;42.640;23.380;2022-09-13T00:55:00;93827.16;;;16.02;82.49
11808;BME280;5961;42.640;23.380;2022-09-13T00:57:28;93860.38;;;16.34;82.51
11808;BME280;5961;42.640;23.380;2022-09-13T01:00:00;93864.19;;;16.33;82.63
11808;BME280;5961;42.640;23.380;2022-09-13T01:02:33;93856.13;;;16.33;82.75
11808;BME280;5961;42.640;23.380;2022-09-13T01:05:00;93861.53;;;16.37;82.52
11808;BME280;5961;42.640;23.380;2022-09-13T01:07:29;93858.44;;;16.35;82.15
11808;BME280;5961;42.640;23.380;2022-09-13T01:09:56;93857.66;;;16.31;82.44
11808;BME280;5961;42.640;23.380;2022-09-13T01:12:30;93862.66;;;16.36;82.37
11808;BME280;5961;42.640;23.380;2022-09-13T01:15:00;93866.53;;;16.42;81.92
11808;BME280;5961;42.640;23.380;2022-09-13T01:17:29;93856.53;;;16.35;82.21
11808;BME280;5961;42.640;23.380;2022-09-13T01:19:57;93862.72;;;16.43;81.95
11808;BME280;5961;42.640;23.380;2022-09-13T01:26:02;93868.47;;;16.45;81.79
11808;BME280;5961;42.640;23.380;2022-09-13T01:29:14;93855.81;;;16.42;81.80
11808;BME280;5961;42.640;23.380;2022-09-13T01:31:53;93874.53;;;16.31;82.35
11808;BME280;5961;42.640;23.380;2022-09-13T01:34:33;93834.47;;;16.05;82.70
11808;BME280;5961;42.640;23.380;2022-09-13T01:37:18;93836.81;;;16.14;82.87
11808;BME280;5961;42.640;23.380;2022-09-13T01:40:01;93846.06;;;16.20;83.18
11808;BME280;5961;42.640;23.380;2022-09-13T01:42:40;93850.28;;;16.21;83.26
11808;BME280;5961;42.640;23.380;2022-09-13T01:45:16;93847.63;;;16.24;83.05
11808;BME280;5961;42.640;23.380;2022-09-13T01:47:53;93842.63;;;16.23;82.96
11808;BME280;5961;42.640;23.380;2022-09-13T01:50:32;93835.34;;;16.20;82.98
11808;BME280;5961;42.640;23.380;2022-09-13T01:53:05;93839.97;;;16.23;82.86
11808;BME280;5961;42.640;23.380;2022-09-13T01:55:38;93831.91;;;16.23;82.97
11808;BME280;5961;42.640;23.380;2022-09-13T01:58:18;93848.34;;;16.18;83.44
11808;BME280;5961;42.640;23.380;2022-09-13T02:00:50;93834.19;;;16.21;83.21
11808;BME280;5961;42.640;23.380;2022-09-13T02:03:27;93837.56;;;16.11;83.60
11808;BME280;5961;42.640;23.380;2022-09-13T02:05:59;93831.47;;;16.14;83.66
11808;BME280;5961;42.640;23.380;2022-09-13T02:08:33;93765.50;;;15.55;83.93
11808;BME280;5961;42.640;23.380;2022-09-13T02:11:07;93834.50;;;16.09;83.89
11808;BME280;5961;42.640;23.380;2022-09-13T02:13:38;93745.50;;;15.45;84.15
11808;BME280;5961;42.640;23.380;2022-09-13T02:16:10;93852.13;;;16.10;84.02
11808;BME280;5961;42.640;23.380;2022-09-13T02:18:44;93837.56;;;16.11;84.00
11808;BME280;5961;42.640;23.380;2022-09-13T02:21:15;93842.53;;;16.09;84.20
11808;BME280;5961;42.640;23.380;2022-09-13T02:23:49;93797.19;;;15.89;83.67
11808;BME280;5961;42.640;23.380;2022-09-13T02:26:19;93829.19;;;16.16;83.56
11808;BME280;5961;42.640;23.380;2022-09-13T02:28:50;93806.81;;;15.94;83.33
11808;BME280;5961;42.640;23.380;2022-09-13T02:31:22;93816.84;;;16.08;83.47
11808;BME280;5961;42.640;23.380;2022-09-13T02:33:55;93834.47;;;16.05;83.69
11808;BME280;5961;42.640;23.380;2022-09-13T02:36:26;93842.09;;;16.03;83.79
11808;BME280;5961;42.640;23.380;2022-09-13T02:38:58;93842.84;;;16.00;84.02
11808;BME280;5961;42.640;23.380;2022-09-13T02:41:30;93827.47;;;15.93;83.86
11808;BME280;5961;42.640;23.380;2022-09-13T02:44:05;93844.28;;;15.90;84.42
11808;BME280;5961;42.640;23.380;2022-09-13T02:46:48;93835.13;;;15.91;84.45
11808;BME280;5961;42.640;23.380;2022-09-13T02:49:24;93854.19;;;15.86;84.30
11808;BME280;5961;42.640;23.380;2022-09-13T02:52:02;93842.31;;;15.84;84.80
11808;BME280;5961;42.640;23.380;2022-09-13T02:54:37;93840.06;;;15.89;84.52
11808;BME280;5961;42.640;23.380;2022-09-13T02:57:08;93843.91;;;15.88;84.33
11808;BME280;5961;42.640;23.380;2022-09-13T02:59:37;93833.91;;;15.85;84.49
11808;BME280;5961;42.640;23.380;2022-09-13T03:02:06;93841.53;;;15.83;84.75
11808;BME280;5961;42.640;23.380;2022-09-13T03:04:35;93840.41;;;15.84;84.55
11808;BME280;5961;42.640;23.380;2022-09-13T03:07:02;93839.28;;;15.85;84.45
11808;BME280;5961;42.640;23.380;2022-09-13T03:09:29;93836.50;;;15.75;84.44
11808;BME280;5961;42.640;23.380;2022-09-13T03:12:28;93845.72;;;15.81;84.68
11808;BME280;5961;42.640;23.380;2022-09-13T03:15:08;93841.50;;;15.76;84.62
11808;BME280;5961;42.640;23.380;2022-09-13T03:17:46;93839.59;;;15.80;84.31
11808;BME280;5961;42.640;23.380;2022-09-13T03:20:20;93836.44;;;15.71;84.64
11808;BME280;5961;42.640;23.380;2022-09-13T03:23:02;93838.44;;;15.78;84.48
11808;BME280;5961;42.640;23.380;2022-09-13T03:25:58;93843.41;;;15.76;84.32
11808;BME280;5961;42.640;23.380;2022-09-13T03:28:33;93804.56;;;15.59;84.45
11808;BME280;5961;42.640;23.380;2022-09-13T03:31:05;93816.09;;;15.63;84.11
11808;BME280;5961;42.640;23.380;2022-09-13T03:33:42;93834.97;;;15.77;84.00
11808;BME280;5961;42.640;23.380;2022-09-13T03:36:14;93836.44;;;15.71;84.38
11808;BME280;5961;42.640;23.380;2022-09-13T03:38:53;93839.59;;;15.80;83.84
11808;BME280;5961;42.640;23.380;2022-09-13T03:41:23;93843.88;;;15.85;83.52
11808;BME280;5961;42.640;23.380;2022-09-13T03:43:55;93803.75;;;15.52;84.00
11808;BME280;5961;42.640;23.380;2022-09-13T03:46:27;93842.66;;;15.79;83.48
11808;BME280;5961;42.640;23.380;2022-09-13T03:48:56;93841.88;;;15.78;83.63
11808;BME280;5961;42.640;23.380;2022-09-13T03:51:27;93841.50;;;15.76;83.56
11808;BME280;5961;42.640;23.380;2022-09-13T03:53:57;93828.41;;;15.68;83.40
11808;BME280;5961;42.640;23.380;2022-09-13T03:56:26;93832.56;;;15.62;83.33
11808;BME280;5961;42.640;23.380;2022-09-13T03:58:52;93848.78;;;15.79;83.11
11808;BME280;5961;42.640;23.380;2022-09-13T04:01:22;93843.00;;;15.74;83.01
11808;BME280;5961;42.640;23.380;2022-09-13T04:03:49;93846.84;;;15.76;82.86
11808;BME280;5961;42.640;23.380;2022-09-13T04:06:16;93854.84;;;15.73;82.75
11808;BME280;5961;42.640;23.380;2022-09-13T04:08:44;93851.78;;;15.74;82.51
11808;BME280;5961;42.640;23.380;2022-09-13T04:11:11;93854.88;;;15.76;82.37
11808;BME280;5961;42.640;23.380;2022-09-13T04:13:38;93856.41;;;15.77;82.46
11808;BME280;5961;42.640;23.380;2022-09-13T04:16:06;93842.63;;;15.75;82.12
11808;BME280;5961;42.640;23.380;2022-09-13T04:18:33;93834.94;;;15.70;81.53
11808;BME280;5961;42.640;23.380;2022-09-13T04:21:01;93841.06;;;15.74;81.60
11808;BME280;5961;42.640;23.380;2022-09-13T04:23:29;93837.94;;;15.65;81.47
11808;BME280;5961;42.640;23.380;2022-09-13T04:26:01;93854.06;;;15.72;81.31
11808;BME280;5961;42.640;23.380;2022-09-13T04:28:28;93847.97;;;15.75;80.84
11808;BME280;5961;42.640;23.380;2022-09-13T04:30:55;93854.00;;;15.65;80.96
11808;BME280;5961;42.640;23.380;2022-09-13T04:33:22;93803.97;;;15.39;80.54
11808;BME280;5961;42.640;23.380;2022-09-13T04:35:53;93847.16;;;15.68;80.80
11808;BME280;5961;42.640;23.380;2022-09-13T04:38:20;93857.97;;;15.78;80.63
11808;BME280;5961;42.640;23.380;2022-09-13T04:40:51;93863.69;;;15.77;80.89
11808;BME280;5961;42.640;23.380;2022-09-13T04:43:20;93860.25;;;15.76;80.78
11808;BME280;5961;42.640;23.380;2022-09-13T04:45:47;93837.88;;;15.58;80.83
11808;BME280;5961;42.640;23.380;2022-09-13T04:48:14;93866.34;;;15.73;80.70
11808;BME280;5961;42.640;23.380;2022-09-13T04:50:41;93861.03;;;15.77;80.60
11808;BME280;5961;42.640;23.380;2022-09-13T04:53:09;93839.72;;;15.54;80.60
11808;BME280;5961;42.640;23.380;2022-09-13T04:55:35;93884.75;;;15.78;80.46
11808;BME280;5961;42.640;23.380;2022-09-13T04:58:02;93883.25;;;15.81;80.33
11808;BME280;5961;42.640;23.380;2022-09-13T05:00:31;93867.88;;;15.74;80.53
11808;BME280;5961;42.640;23.380;2022-09-13T05:02:58;93875.59;;;15.79;80.44
11808;BME280;5961;42.640;23.380;2022-09-13T05:05:25;93881.72;;;15.80;80.30
11808;BME280;5961;42.640;23.380;2022-09-13T05:07:53;93883.63;;;15.79;80.27
11808;BME280;5961;42.640;23.380;2022-09-13T05:10:20;93883.94;;;15.74;80.60
11808;BME280;5961;42.640;23.380;2022-09-13T05:12:46;93852.44;;;15.61;80.10
11808;BME280;5961;42.640;23.380;2022-09-13T05:15:13;93835.16;;;15.55;80.02
11808;BME280;5961;42.640;23.380;2022-09-13T05:17:41;93875.63;;;15.83;80.02
11808;BME280;5961;42.640;23.380;2022-09-13T05:20:09;93882.16;;;15.85;80.19
11808;BME280;5961;42.640;23.380;2022-09-13T05:22:36;93884.88;;;15.89;80.00
11808;BME280;5961;42.640;23.380;2022-09-13T05:25:03;93885.69;;;15.97;79.68
11808;BME280;5961;42.640;23.380;2022-09-13T05:27:30;93883.09;;;16.04;79.47
11808;BME280;5961;42.640;23.380;2022-09-13T05:29:57;93874.66;;;16.05;78.99
11808;BME280;5961;42.640;23.380;2022-09-13T05:32:24;93888.56;;;16.18;78.17
11808;BME280;5961;42.640;23.380;2022-09-13T05:34:52;93877.47;;;16.16;77.79
11808;BME280;5961;42.640;23.380;2022-09-13T05:37:18;93892.13;;;16.32;77.79
11808;BME280;5961;42.640;23.380;2022-09-13T05:39:48;93886.84;;;16.39;77.12
11808;BME280;5961;42.640;23.380;2022-09-13T05:42:15;93874.59;;;16.42;76.59
11808;BME280;5961;42.640;23.380;2022-09-13T05:44:42;93852.97;;;16.21;76.72
11808;BME280;5961;42.640;23.380;2022-09-13T05:47:12;93888.06;;;16.49;76.84
11808;BME280;5961;42.640;23.380;2022-09-13T05:49:39;93893.81;;;16.51;76.46
11808;BME280;5961;42.640;23.380;2022-09-13T05:52:07;93873.06;;;16.44;76.63
11808;BME280;5961;42.640;23.380;2022-09-13T05:54:33;93891.50;;;16.46;75.11
11808;BME280;5961;42.640;23.380;2022-09-13T05:57:01;93894.94;;;16.46;75.04
11808;BME280;5961;42.640;23.380;2022-09-13T05:59:28;93899.50;;;16.42;74.99
11808;BME280;5961;42.640;23.380;2022-09-13T06:01:56;93889.13;;;16.41;75.26
11808;BME280;5961;42.640;23.380;2022-09-13T06:04:22;93880.72;;;16.42;76.73
11808;BME280;5961;42.640;23.380;2022-09-13T06:06:49;93894.91;;;16.43;77.60
11808;BME280;5961;42.640;23.380;2022-09-13T06:09:17;93878.81;;;16.43;76.15
11808;BME280;5961;42.640;23.380;2022-09-13T06:11:44;93886.88;;;16.43;76.80
11808;BME280;5961;42.640;23.380;2022-09-13T06:14:11;93889.59;;;16.46;81.17
11808;BME280;5961;42.640;23.380;2022-09-13T06:16:37;93897.25;;;16.48;79.27
11808;BME280;5961;42.640;23.380;2022-09-13T06:19:04;93897.72;;;16.57;79.04
11808;BME280;5961;42.640;23.380;2022-09-13T06:21:31;93913.81;;;16.57;76.08
11808;BME280;5961;42.640;23.380;2022-09-13T06:23:58;93893.78;;;16.47;75.36
11808;BME280;5961;42.640;23.380;2022-09-13T06:26:27;93915.00;;;16.63;75.40
11808;BME280;5961;42.640;23.380;2022-09-13T06:28:55;93903.09;;;16.57;75.82
11808;BME280;5961;42.640;23.380;2022-09-13T06:31:24;93914.66;;;16.65;76.35
11808;BME280;5961;42.640;23.380;2022-09-13T06:33:55;93910.78;;;16.62;74.74
11808;BME280;5961;42.640;23.380;2022-09-13T06:36:23;93914.38;;;16.77;74.94
11808;BME280;5961;42.640;23.380;2022-09-13T06:38:50;93915.09;;;16.77;74.81
11808;BME280;5961;42.640;23.380;2022-09-13T06:41:18;93915.53;;;16.79;75.10
11808;BME280;5961;42.640;23.380;2022-09-13T06:43:51;93913.91;;;16.71;74.71
11808;BME280;5961;42.640;23.380;2022-09-13T06:46:18;93922.44;;;16.84;74.86
11808;BME280;5961;42.640;23.380;2022-09-13T06:48:46;93912.44;;;16.81;74.95
11808;BME280;5961;42.640;23.380;2022-09-13T06:51:15;93932.03;;;16.85;75.17
11808;BME280;5961;42.640;23.380;2022-09-13T06:53:43;93941.25;;;16.87;75.36
11808;BME280;5961;42.640;23.380;2022-09-13T06:56:12;93925.50;;;16.82;74.76
11808;BME280;5961;42.640;23.380;2022-09-13T06:58:40;93932.50;;;16.97;75.15
11808;BME280;5961;42.640;23.380;2022-09-13T07:01:11;93932.13;;;16.99;74.41
11808;BME280;5961;42.640;23.380;2022-09-13T07:03:41;93932.53;;;17.01;73.63
11808;BME280;5961;42.640;23.380;2022-09-13T07:06:10;93944.03;;;17.01;72.41
11808;BME280;5961;42.640;23.380;2022-09-13T07:08:38;93934.78;;;16.95;71.49
11808;BME280;5961;42.640;23.380;2022-09-13T07:11:05;93949.41;;;17.01;71.59
11808;BME280;5961;42.640;23.380;2022-09-13T07:13:32;93942.09;;;16.95;72.08
11808;BME280;5961;42.640;23.380;2022-09-13T07:16:03;93948.66;;;17.01;72.35
11808;BME280;5961;42.640;23.380;2022-09-13T07:18:33;93946.31;;;16.99;71.73
11808;BME280;5961;42.640;23.380;2022-09-13T07:21:01;93954.00;;;17.05;71.30
11808;BME280;5961;42.640;23.380;2022-09-13T07:23:30;93949.81;;;17.04;71.15
11808;BME280;5961;42.640;23.380;2022-09-13T07:25:57;93957.13;;;17.07;71.08
11808;BME280;5961;42.640;23.380;2022-09-13T07:28:27;93954.00;;;17.01;70.45
11808;BME280;5961;42.640;23.380;2022-09-13T07:30:55;93949.41;;;17.05;70.93
11808;BME280;5961;42.640;23.380;2022-09-13T07:33:23;93943.31;;;17.12;70.94
11808;BME280;5961;42.640;23.380;2022-09-13T07:35:55;93959.44;;;17.12;71.62
11808;BME280;5961;42.640;23.380;2022-09-13T07:38:22;93960.22;;;17.12;69.61
11808;BME280;5961;42.640;23.380;2022-09-13T07:40:52;93953.31;;;17.15;69.17
11808;BME280;5961;42.640;23.380;2022-09-13T07:43:20;93957.19;;;17.21;68.84
11808;BME280;5961;42.640;23.380;2022-09-13T07:45:46;93948.38;;;17.24;69.38
11808;BME280;5961;42.640;23.380;2022-09-13T07:48:13;93940.34;;;17.27;69.77
11808;BME280;5961;42.640;23.380;2022-09-13T07:50:40;93953.88;;;17.45;69.27
11808;BME280;5961;42.640;23.380;2022-09-13T07:53:08;93955.75;;;17.37;66.71
11808;BME280;5961;42.640;23.380;2022-09-13T07:55:35;93960.06;;;17.56;66.26
11808;BME280;5961;42.640;23.380;2022-09-13T07:58:01;93963.16;;;17.54;64.79
11808;BME280;5961;42.640;23.380;2022-09-13T08:00:28;93962.03;;;17.63;64.73
11808;BME280;5961;42.640;23.380;2022-09-13T08:02:55;93963.56;;;17.60;63.25
11808;BME280;5961;42.640;23.380;2022-09-13T08:05:21;93970.50;;;17.61;64.06
11808;BME280;5961;42.640;23.380;2022-09-13T08:07:48;93974.34;;;17.64;63.88
11808;BME280;5961;42.640;23.380;2022-09-13T08:10:16;93966.69;;;17.73;64.68
11808;BME280;5961;42.640;23.380;2022-09-13T08:12:43;93971.31;;;17.76;63.94
11808;BME280;5961;42.640;23.380;2022-09-13T08:15:10;93967.47;;;17.80;61.86
11808;BME280;5961;42.640;23.380;2022-09-13T08:17:36;93956.72;;;17.73;63.98
11808;BME280;5961;42.640;23.380;2022-09-13T08:20:03;93969.81;;;17.85;64.86
11808;BME280;5961;42.640;23.380;2022-09-13T08:22:31;93942.13;;;17.78;63.64
11808;BME280;5961;42.640;23.380;2022-09-13T08:24:57;93972.53;;;17.89;63.50
11808;BME280;5961;42.640;23.380;2022-09-13T08:27:27;93974.44;;;17.99;62.49
11808;BME280;5961;42.640;23.380;2022-09-13T08:29:53;93965.25;;;18.03;62.86
11808;BME280;5961;42.640;23.380;2022-09-13T08:32:20;93961.41;;;18.08;63.27
11808;BME280;5961;42.640;23.380;2022-09-13T08:34:47;93959.13;;;18.14;61.85
11808;BME280;5961;42.640;23.380;2022-09-13T08:37:14;93953.75;;;18.14;61.60
11808;BME280;5961;42.640;23.380;2022-09-13T08:39:40;93966.84;;;18.19;58.93
11808;BME280;5961;42.640;23.380;2022-09-13T08:42:23;93966.06;;;18.18;56.82
11808;BME280;5961;42.640;23.380;2022-09-13T08:44:55;93960.69;;;18.22;53.94
11808;BME280;5961;42.640;23.380;2022-09-13T08:47:37;93960.69;;;18.22;54.13
11808;BME280;5961;42.640;23.380;2022-09-13T08:50:11;93956.06;;;18.26;54.12
11808;BME280;5961;42.640;23.380;2022-09-13T08:52:49;93951.47;;;18.30;55.47
11808;BME280;5961;42.640;23.380;2022-09-13T08:55:24;93959.94;;;18.25;54.39
11808;BME280;5961;42.640;23.380;2022-09-13T08:58:00;93943.78;;;18.32;51.63
11808;BME280;5961;42.640;23.380;2022-09-13T09:00:34;93939.19;;;18.39;52.15
11808;BME280;5961;42.640;23.380;2022-09-13T09:03:13;93941.50;;;18.48;51.01
11808;BME280;5961;42.640;23.380;2022-09-13T09:05:45;93878.41;;;18.10;47.63
11808;BME280;5961;42.640;23.380;2022-09-13T09:08:18;93942.31;;;18.62;49.52
11808;BME280;5961;42.640;23.380;2022-09-13T09:10:48;93939.22;;;18.68;51.07
11808;BME280;5961;42.640;23.380;2022-09-13T09:13:20;93942.28;;;18.77;52.79
11808;BME280;5961;42.640;23.380;2022-09-13T09:15:51;93941.53;;;18.83;52.11
11808;BME280;5961;42.640;23.380;2022-09-13T09:18:22;93957.69;;;18.90;48.89
11808;BME280;5961;42.640;23.380;2022-09-13T09:20:51;93941.53;;;18.76;48.09
11808;BME280;5961;42.640;23.380;2022-09-13T09:23:22;93952.28;;;18.90;48.97
11808;BME280;5961;42.640;23.380;2022-09-13T09:25:54;93948.47;;;18.91;49.74
11808;BME280;5961;42.640;23.380;2022-09-13T09:28:21;93942.28;;;18.91;49.70
11808;BME280;5961;42.640;23.380;2022-09-13T09:30:55;93946.88;;;19.08;48.15
11808;BME280;5961;42.640;23.380;2022-09-13T09:33:35;93937.66;;;19.05;47.95
11808;BME280;5961;42.640;23.380;2022-09-13T09:36:06;93905.34;;;18.95;48.03
11808;BME280;5961;42.640;23.380;2022-09-13T09:38:37;93896.13;;;18.96;46.35
11808;BME280;5961;42.640;23.380;2022-09-13T09:41:14;93937.63;;;19.27;47.70
11808;BME280;5961;42.640;23.380;2022-09-13T09:43:49;93930.25;;;19.34;48.76
11808;BME280;5961;42.640;23.380;2022-09-13T09:46:25;93925.31;;;19.40;48.81
11808;BME280;5961;42.640;23.380;2022-09-13T09:48:55;93917.56;;;19.45;49.46
11808;BME280;5961;42.640;23.380;2022-09-13T09:51:23;93929.13;;;19.46;49.08
11808;BME280;5961;42.640;23.380;2022-09-13T09:53:57;93919.13;;;19.43;48.51
11808;BME280;5961;42.640;23.380;2022-09-13T09:56:30;93916.81;;;19.41;47.92
11808;BME280;5961;42.640;23.380;2022-09-13T09:58:57;93907.56;;;19.39;47.82
11808;BME280;5961;42.640;23.380;2022-09-13T10:01:26;93916.03;;;19.48;47.73
11808;BME280;5961;42.640;23.380;2022-09-13T10:04:01;93916.03;;;19.48;47.75
11808;BME280;5961;42.640;23.380;2022-09-13T10:06:29;93906.03;;;19.45;47.72
11808;BME280;5961;42.640;23.380;2022-09-13T10:08:59;93893.69;;;19.40;47.98
11808;BME280;5961;42.640;23.380;2022-09-13T10:11:42;93902.53;;;19.55;48.45
11808;BME280;5961;42.640;23.380;2022-09-13T10:14:28;93827.59;;;19.07;48.31
11808;BME280;5961;42.640;23.380;2022-09-13T10:17:15;93898.63;;;19.63;48.83
11808;BME280;5961;42.640;23.380;2022-09-13T10:19:54;93908.28;;;19.60;46.96
11808;BME280;5961;42.640;23.380;2022-09-13T10:22:22;93852.50;;;19.43;47.39
11808;BME280;5961;42.640;23.380;2022-09-13T10:24:49;93900.53;;;19.66;47.89
11808;BME280;5961;42.640;23.380;2022-09-13T10:27:24;93899.41;;;19.67;48.89
11808;BME280;5961;42.640;23.380;2022-09-13T10:29:54;93899.00;;;19.61;48.92
11808;BME280;5961;42.640;23.380;2022-09-13T10:32:26;93867.13;;;19.46;48.85
11808;BME280;5961;42.640;23.380;2022-09-13T10:34:54;93880.97;;;19.55;47.61
11808;BME280;5961;42.640;23.380;2022-09-13T10:37:26;93893.22;;;19.66;47.03
11808;BME280;5961;42.640;23.380;2022-09-13T10:40:00;93885.13;;;19.70;47.27
11808;BME280;5961;42.640;23.380;2022-09-13T10:42:30;93880.09;;;19.76;46.40
11808;BME280;5961;42.640;23.380;2022-09-13T10:44:59;93876.22;;;19.77;45.81
11808;BME280;5961;42.640;23.380;2022-09-13T10:47:31;93881.53;;;19.91;44.53
11808;BME280;5961;42.640;23.380;2022-09-13T10:50:17;93869.53;;;19.99;43.60
11808;BME280;5961;42.640;23.380;2022-09-13T10:52:46;93859.53;;;19.99;44.10
11808;BME280;5961;42.640;23.380;2022-09-13T10:55:31;93866.34;;;20.18;43.53
11808;BME280;5961;42.640;23.380;2022-09-13T10:58:16;93860.09;;;20.28;43.74
11808;BME280;5961;42.640;23.380;2022-09-13T11:06:29;93796.53;;;20.20;43.33
11808;BME280;5961;42.640;23.380;2022-09-13T11:09:06;93872.25;;;20.57;44.41
11808;BME280;5961;42.640;23.380;2022-09-13T11:11:40;93872.91;;;20.68;43.26
11808;BME280;5961;42.640;23.380;2022-09-13T11:14:26;93874.63;;;20.89;42.85
11808;BME280;5961;42.640;23.380;2022-09-13T11:17:03;93857.63;;;20.92;42.98
11808;BME280;5961;42.640;23.380;2022-09-13T11:19:55;93864.38;;;21.14;43.10
11808;BME280;5961;42.640;23.380;2022-09-13T11:22:38;93873.13;;;21.25;42.82
11808;BME280;5961;42.640;23.380;2022-09-13T11:25:20;93865.44;;;21.24;42.15
11808;BME280;5961;42.640;23.380;2022-09-13T11:27:56;93855.78;;;21.23;41.78
11808;BME280;5961;42.640;23.380;2022-09-13T11:30:26;93875.06;;;21.25;40.56
11808;BME280;5961;42.640;23.380;2022-09-13T11:33:06;93849.97;;;21.24;40.74
11808;BME280;5961;42.640;23.380;2022-09-13T11:35:52;93842.91;;;21.34;38.57
11808;BME280;5961;42.640;23.380;2022-09-13T11:38:34;93853.22;;;21.43;39.37
11808;BME280;5961;42.640;23.380;2022-09-13T11:41:12;93871.41;;;21.42;39.57
11808;BME280;5961;42.640;23.380;2022-09-13T11:43:53;93757.44;;;21.13;39.17
11808;BME280;5961;42.640;23.380;2022-09-13T11:46:26;93831.47;;;21.83;39.22
11808;BME280;5961;42.640;23.380;2022-09-13T11:49:19;93843.22;;;22.00;38.55
11808;BME280;5961;42.640;23.380;2022-09-13T11:51:58;93840.72;;;22.13;37.69
11808;BME280;5961;42.640;23.380;2022-09-13T11:54:43;93836.88;;;22.37;36.87
11808;BME280;5961;42.640;23.380;2022-09-13T11:57:18;93848.47;;;22.37;36.22
11808;BME280;5961;42.640;23.380;2022-09-13T11:59:51;93841.41;;;22.43;36.15
11808;BME280;5961;42.640;23.380;2022-09-13T12:02:26;93862.00;;;22.37;36.69
11808;BME280;5961;42.640;23.380;2022-09-13T12:04:59;93844.53;;;22.42;36.43
11808;BME280;5961;42.640;23.380;2022-09-13T12:07:34;93860.84;;;22.62;35.60
11808;BME280;5961;42.640;23.380;2022-09-13T12:10:08;93838.56;;;22.77;35.46
11808;BME280;5961;42.640;23.380;2022-09-13T12:12:40;93863.94;;;22.87;35.74
11808;BME280;5961;42.640;23.380;2022-09-13T12:15:14;93805.56;;;22.59;35.79
11808;BME280;5961;42.640;23.380;2022-09-13T12:17:44;93829.03;;;22.89;36.05
11808;BME280;5961;42.640;23.380;2022-09-13T12:20:17;93842.28;;;23.07;34.64
11808;BME280;5961;42.640;23.380;2022-09-13T12:22:49;93838.66;;;23.13;34.90
11808;BME280;5961;42.640;23.380;2022-09-13T12:25:20;93828.47;;;23.21;34.67
11808;BME280;5961;42.640;23.380;2022-09-13T12:27:54;93818.72;;;23.23;34.19
11808;BME280;5961;42.640;23.380;2022-09-13T12:30:23;93833.22;;;23.33;35.33
11808;BME280;5961;42.640;23.380;2022-09-13T12:32:53;93839.38;;;23.37;35.56
11808;BME280;5961;42.640;23.380;2022-09-13T12:35:24;93848.75;;;23.32;34.14
11808;BME280;5961;42.640;23.380;2022-09-13T12:38:15;93828.25;;;23.31;33.65
11808;BME280;5961;42.640;23.380;2022-09-13T12:41:00;93839.03;;;23.35;33.25
11808;BME280;5961;42.640;23.380;2022-09-13T12:43:48;93826.78;;;23.27;33.10
11808;BME280;5961;42.640;23.380;2022-09-13T12:46:30;93855.84;;;23.26;34.28
11808;BME280;5961;42.640;23.380;2022-09-13T12:49:30;93816.03;;;23.23;34.13
11808;BME280;5961;42.640;23.380;2022-09-13T12:52:09;93822.81;;;23.31;33.57
11808;BME280;5961;42.640;23.380;2022-09-13T12:55:15;93818.50;;;23.34;33.95
11808;BME280;5961;42.640;23.380;2022-09-13T12:57:49;93837.81;;;23.36;33.71
11808;BME280;5961;42.640;23.380;2022-09-13T13:00:21;93820.34;;;23.40;33.72
11808;BME280;5961;42.640;23.380;2022-09-13T13:02:59;93833.41;;;23.45;33.62
11808;BME280;5961;42.640;23.380;2022-09-13T13:05:29;93841.75;;;23.55;33.91
11808;BME280;5961;42.640;23.380;2022-09-13T13:07:59;93852.53;;;23.58;33.88
11808;BME280;5961;42.640;23.380;2022-09-13T13:10:30;93799.34;;;23.44;34.20
11808;BME280;5961;42.640;23.380;2022-09-13T13:13:12;93831.47;;;23.66;34.63
11808;BME280;5961;42.640;23.380;2022-09-13T13:16:00;93838.31;;;23.70;33.52
11808;BME280;5961;42.640;23.380;2022-09-13T13:18:30;93804.34;;;23.46;33.87
11808;BME280;5961;42.640;23.380;2022-09-13T13:27:38;93828.19;;;23.35;35.32
11808;BME280;5961;42.640;23.380;2022-09-13T13:33:26;93841.06;;;23.51;35.32
11808;BME280;5961;42.640;23.380;2022-09-13T13:35:53;93836.31;;;23.55;35.56
11808;BME280;5961;42.640;23.380;2022-09-13T13:38:46;93838.84;;;23.45;35.22
11808;BME280;5961;42.640;23.380;2022-09-13T13:41:37;93843.50;;;23.65;35.40
11808;BME280;5961;42.640;23.380;2022-09-13T13:50:22;93841.34;;;23.92;34.66